West, Texas
Current Conditions -  °F | °C
As of 9:50 AM on Monday 22 Dec 2014 (Local Time) from KCNW Reporting Station
Clear Clear  
Wind Chill: 61°   Ceiling: Unl
Heat Index: 61°   Visibility: 10mi
Dew Point: 54°   Wind: 16mph
Humidity: 77%   Direction: 220°SW
Pressure: 29.66"   Gusts: NA
Location:  31.8°N, 97.09°W
Report Text: KCNW 221550Z 22014KT 10SM SKC 16/12 A2966
Loading
Personal Weather Stations






























Interactive Weather Map New forecast layout! Learn more

10-Day Weather Forecast

Advertisements
Track Severe Weather on mobile